createdAt,value
2024-03-26T00:05:33.259Z,100.00
2024-03-26T00:13:57.615Z,100.00
2024-03-26T00:22:20.197Z,100.00
2024-03-26T00:30:42.736Z,100.00
2024-03-26T00:39:06.154Z,100.00
2024-03-26T00:47:28.768Z,100.00
2024-03-26T00:55:51.450Z,100.00
2024-03-26T01:04:14.113Z,100.00
2024-03-26T01:12:36.814Z,100.00
2024-03-26T01:20:59.606Z,100.00
2024-03-26T01:29:22.361Z,100.00
2024-03-26T01:37:45.468Z,100.00
2024-03-26T01:46:08.389Z,100.00
2024-03-26T01:54:31.072Z,100.00
2024-03-26T02:02:53.855Z,100.00
2024-03-26T02:11:17.125Z,100.00
2024-03-26T02:19:39.910Z,100.00
2024-03-26T02:28:03.085Z,100.00
2024-03-26T02:36:25.777Z,100.00
2024-03-26T02:44:48.410Z,100.00
2024-03-26T02:53:11.038Z,100.00
2024-03-26T03:01:33.543Z,100.00
2024-03-26T03:09:56.107Z,100.00
2024-03-26T03:18:20.028Z,100.00
2024-03-26T03:26:42.670Z,100.00
2024-03-26T03:35:05.590Z,100.00
2024-03-26T03:43:28.223Z,100.00
2024-03-26T03:51:53.187Z,100.00
2024-03-26T04:00:16.412Z,100.00
2024-03-26T04:08:39.078Z,100.00
2024-03-26T04:17:01.671Z,100.00
2024-03-26T04:25:24.442Z,100.00
2024-03-26T04:33:47.090Z,100.00
2024-03-26T04:42:09.602Z,100.00
2024-03-26T04:50:32.221Z,100.00
2024-03-26T04:58:54.753Z,100.00
2024-03-26T05:07:17.662Z,100.00
2024-03-26T05:15:40.371Z,100.00
2024-03-26T05:24:04.348Z,100.00
2024-03-26T05:32:28.366Z,100.00
2024-03-26T05:40:52.368Z,100.00
2024-03-26T05:49:15.841Z,100.00
2024-03-26T05:57:39.175Z,100.00
2024-03-26T06:06:02.164Z,100.00
2024-03-26T06:14:24.937Z,100.00
2024-03-26T06:22:48.063Z,100.00
2024-03-26T06:31:10.622Z,100.00
2024-03-26T06:39:33.243Z,100.00
2024-03-26T06:47:55.997Z,100.00
2024-03-26T06:56:18.838Z,100.00
2024-03-26T07:04:41.529Z,100.00
2024-03-26T07:13:04.433Z,100.00
2024-03-26T07:21:28.025Z,100.00
2024-03-26T07:29:50.705Z,100.00
2024-03-26T07:38:13.385Z,100.00
2024-03-26T07:46:36.137Z,100.00
2024-03-26T07:54:58.849Z,100.00
2024-03-26T08:03:21.760Z,100.00
2024-03-26T08:11:44.451Z,100.00
2024-03-26T08:20:10.959Z,100.00
2024-03-26T08:28:33.649Z,100.00
2024-03-26T08:36:57.429Z,100.00
2024-03-26T08:45:20.985Z,100.00
2024-03-26T08:53:43.795Z,100.00
2024-03-26T09:02:06.556Z,100.00
2024-03-26T09:10:29.129Z,100.00
2024-03-26T09:18:52.488Z,100.00
2024-03-26T09:27:15.714Z,100.00
2024-03-26T09:35:38.434Z,100.00
2024-03-26T09:44:01.140Z,100.00
2024-03-26T09:52:25.538Z,100.00
2024-03-26T10:00:51.204Z,94.10
2024-03-26T10:09:13.940Z,95.67
2024-03-26T10:17:37.494Z,94.34
2024-03-26T10:26:00.243Z,93.82
2024-03-26T10:34:27.947Z,92.88
2024-03-26T10:42:53.611Z,87.36
2024-03-26T10:51:16.643Z,83.13
2024-03-26T10:59:39.395Z,80.64
2024-03-26T11:08:01.972Z,81.91
2024-03-26T11:16:34.570Z,72.34
2024-03-26T11:25:05.436Z,48.97
2024-03-26T11:33:32.773Z,31.89
2024-03-26T11:41:56.155Z,26.27
2024-03-26T11:50:19.025Z,25.32
2024-03-26T11:58:41.803Z,22.57
2024-03-26T12:07:11.611Z,23.39
2024-03-26T12:15:34.359Z,19.55
2024-03-26T12:23:57.583Z,19.86
2024-03-26T12:32:20.318Z,18.52
2024-03-26T12:40:43.160Z,21.07
2024-03-26T12:49:06.535Z,22.67
2024-03-26T12:57:29.095Z,25.99
2024-03-26T13:05:51.715Z,26.29
2024-03-26T13:14:14.295Z,21.78
2024-03-26T13:22:37.035Z,20.66
2024-03-26T13:31:00.671Z,19.95
2024-03-26T13:39:23.681Z,18.96
2024-03-26T13:47:46.508Z,19.20
2024-03-26T13:56:09.184Z,19.20
2024-03-26T14:04:32.394Z,18.69
2024-03-26T14:12:55.966Z,19.26
2024-03-26T14:21:18.709Z,21.09
2024-03-26T14:29:41.707Z,22.81
2024-03-26T14:38:04.599Z,22.53
2024-03-26T14:46:27.487Z,22.84
2024-03-26T14:54:50.149Z,22.88
2024-03-26T15:03:12.718Z,24.74
2024-03-26T15:11:35.672Z,26.46
2024-03-26T15:19:58.493Z,26.64
2024-03-26T15:28:39.778Z,25.99
2024-03-26T15:37:03.514Z,26.54
2024-03-26T15:45:26.423Z,27.95
2024-03-26T15:53:49.201Z,29.06
2024-03-26T16:02:11.899Z,30.70
2024-03-26T16:10:52.737Z,33.41
2024-03-26T16:19:17.376Z,37.15
2024-03-26T16:27:40.218Z,39.91
2024-03-26T16:36:16.585Z,43.03
2024-03-26T16:44:40.946Z,46.45
2024-03-26T16:53:04.124Z,48.99
2024-03-26T17:01:29.204Z,50.50
2024-03-26T17:09:51.750Z,52.25
2024-03-26T17:18:15.154Z,54.98
2024-03-26T17:26:38.145Z,55.92
2024-03-26T17:35:00.960Z,57.69
2024-03-26T17:43:26.086Z,59.75
2024-03-26T17:51:51.614Z,61.09
2024-03-26T18:00:15.849Z,61.04
2024-03-26T18:08:39.757Z,63.10
2024-03-26T18:17:03.145Z,65.57
2024-03-26T18:25:26.840Z,65.67
2024-03-26T18:33:51.321Z,68.26
2024-03-26T18:42:14.831Z,68.30
2024-03-26T18:50:37.539Z,67.92
2024-03-26T18:59:00.364Z,69.32
2024-03-26T19:07:24.523Z,70.48
2024-03-26T19:15:47.972Z,71.60
2024-03-26T19:24:12.956Z,73.47
2024-03-26T19:32:40.385Z,74.05
2024-03-26T19:41:08.310Z,74.80
2024-03-26T19:49:32.301Z,74.95
2024-03-26T19:57:56.029Z,75.85
2024-03-26T20:06:19.497Z,76.65
2024-03-26T20:14:43.853Z,76.37
2024-03-26T20:23:08.374Z,76.00
2024-03-26T20:31:37.851Z,75.43
2024-03-26T20:40:01.610Z,76.99
2024-03-26T20:48:24.418Z,77.40
2024-03-26T20:56:47.087Z,78.26
2024-03-26T21:05:10.422Z,77.89
2024-03-26T21:13:32.974Z,77.45
2024-03-26T21:21:55.579Z,77.40
2024-03-26T21:30:18.255Z,77.73
2024-03-26T21:38:41.025Z,78.36
2024-03-26T21:47:04.716Z,78.28
2024-03-26T21:55:27.516Z,78.53
2024-03-26T22:03:51.129Z,78.95
2024-03-26T22:12:14.166Z,79.25
2024-03-26T22:20:36.828Z,80.24
2024-03-26T22:29:01.213Z,80.33
2024-03-26T22:37:23.991Z,80.07
2024-03-26T22:46:01.024Z,80.14
2024-03-26T22:54:23.804Z,80.54
2024-03-26T23:02:46.584Z,80.68
2024-03-26T23:11:10.777Z,80.35
2024-03-26T23:19:33.498Z,80.42
2024-03-26T23:27:56.451Z,80.27
2024-03-26T23:36:19.442Z,80.14
2024-03-26T23:44:42.228Z,79.57
2024-03-26T23:53:05.015Z,78.92
